Aviation Digital Data Service (ADDS)

Output produced by METARs form (2342 UTC 25 June 2019)
found at http://aviationweather.gov/metar/data/
 
KNEW 252329Z 2600/2624 03005KT P6SM FEW040 FEW060 
     FM260300 05006KT P6SM SCT110 
     FM261200 08006KT P6SM BKN110